sensor_id;sensor_type;location;lat;lon;timestamp;temperature;humidity
52543;DHT22;38449;52.696;6.186;2023-02-03T00:01:15;9.10;99.90
52543;DHT22;38449;52.696;6.186;2023-02-03T00:03:41;9.10;99.90
52543;DHT22;38449;52.696;6.186;2023-02-03T00:06:07;9.10;99.90
52543;DHT22;38449;52.696;6.186;2023-02-03T00:08:34;9.00;99.90
52543;DHT22;38449;52.696;6.186;2023-02-03T00:11:00;9.10;99.90
52543;DHT22;38449;52.696;6.186;2023-02-03T00:13:26;9.10;99.90
52543;DHT22;38449;52.696;6.186;2023-02-03T00:15:52;9.10;99.90
52543;DHT22;38449;52.696;6.186;2023-02-03T00:18:17;9.00;99.90
52543;DHT22;38449;52.696;6.186;2023-02-03T00:20:44;9.00;99.90
52543;DHT22;38449;52.696;6.186;2023-02-03T00:23:11;8.90;99.90
52543;DHT22;38449;52.696;6.186;2023-02-03T00:25:37;9.00;99.90
52543;DHT22;38449;52.696;6.186;2023-02-03T00:28:03;9.00;99.90
52543;DHT22;38449;52.696;6.186;2023-02-03T00:30:30;9.00;99.90
52543;DHT22;38449;52.696;6.186;2023-02-03T00:32:55;9.00;99.90
52543;DHT22;38449;52.696;6.186;2023-02-03T00:35:22;9.10;99.90
52543;DHT22;38449;52.696;6.186;2023-02-03T00:37:52;9.10;99.90
52543;DHT22;38449;52.696;6.186;2023-02-03T00:40:18;9.10;99.90
52543;DHT22;38449;52.696;6.186;2023-02-03T00:42:44;9.10;99.90
52543;DHT22;38449;52.696;6.186;2023-02-03T00:45:10;9.10;99.90
52543;DHT22;38449;52.696;6.186;2023-02-03T00:47:35;9.10;99.90
52543;DHT22;38449;52.696;6.186;2023-02-03T00:50:01;9.10;99.90
52543;DHT22;38449;52.696;6.186;2023-02-03T00:52:26;9.10;99.90
52543;DHT22;38449;52.696;6.186;2023-02-03T00:54:52;9.00;99.90
52543;DHT22;38449;52.696;6.186;2023-02-03T00:57:17;9.00;99.90
52543;DHT22;38449;52.696;6.186;2023-02-03T00:59:43;9.00;99.90
52543;DHT22;38449;52.696;6.186;2023-02-03T01:02:08;8.90;99.90
52543;DHT22;38449;52.696;6.186;2023-02-03T01:04:35;8.90;99.90
52543;DHT22;38449;52.696;6.186;2023-02-03T01:07:01;9.00;99.90
52543;DHT22;38449;52.696;6.186;2023-02-03T01:09:26;9.00;99.90
52543;DHT22;38449;52.696;6.186;2023-02-03T01:11:52;9.00;99.90
52543;DHT22;38449;52.696;6.186;2023-02-03T01:14:17;9.00;99.90
52543;DHT22;38449;52.696;6.186;2023-02-03T01:16:43;8.90;99.90
52543;DHT22;38449;52.696;6.186;2023-02-03T01:19:08;8.90;99.90
52543;DHT22;38449;52.696;6.186;2023-02-03T01:21:34;9.00;99.90
52543;DHT22;38449;52.696;6.186;2023-02-03T01:24:00;9.00;99.90
52543;DHT22;38449;52.696;6.186;2023-02-03T01:26:26;9.00;99.90
52543;DHT22;38449;52.696;6.186;2023-02-03T01:28:56;9.00;99.90
52543;DHT22;38449;52.696;6.186;2023-02-03T01:31:24;8.90;99.90
52543;DHT22;38449;52.696;6.186;2023-02-03T01:33:54;8.90;99.90
52543;DHT22;38449;52.696;6.186;2023-02-03T01:36:22;9.00;99.90
52543;DHT22;38449;52.696;6.186;2023-02-03T01:38:48;9.00;99.90
52543;DHT22;38449;52.696;6.186;2023-02-03T01:41:16;8.90;99.90
52543;DHT22;38449;52.696;6.186;2023-02-03T01:43:48;8.90;99.90
52543;DHT22;38449;52.696;6.186;2023-02-03T01:46:23;8.90;99.90
52543;DHT22;38449;52.696;6.186;2023-02-03T01:48:50;8.90;99.90
52543;DHT22;38449;52.696;6.186;2023-02-03T01:51:16;9.00;99.90
52543;DHT22;38449;52.696;6.186;2023-02-03T01:53:44;8.90;99.90
52543;DHT22;38449;52.696;6.186;2023-02-03T01:56:10;8.90;99.90
52543;DHT22;38449;52.696;6.186;2023-02-03T01:58:38;8.90;99.90
52543;DHT22;38449;52.696;6.186;2023-02-03T02:01:05;8.80;99.90
52543;DHT22;38449;52.696;6.186;2023-02-03T02:03:48;8.80;99.90
52543;DHT22;38449;52.696;6.186;2023-02-03T02:06:14;8.80;99.90
52543;DHT22;38449;52.696;6.186;2023-02-03T02:08:43;8.80;99.90
52543;DHT22;38449;52.696;6.186;2023-02-03T02:11:10;8.90;99.90
52543;DHT22;38449;52.696;6.186;2023-02-03T02:13:36;8.90;99.90
52543;DHT22;38449;52.696;6.186;2023-02-03T02:16:14;8.90;99.90
52543;DHT22;38449;52.696;6.186;2023-02-03T02:27:06;9.00;99.90
52543;DHT22;38449;52.696;6.186;2023-02-03T02:30:17;8.90;99.90
52543;DHT22;38449;52.696;6.186;2023-02-03T02:33:09;8.90;99.90
52543;DHT22;38449;52.696;6.186;2023-02-03T02:35:49;8.80;99.90
52543;DHT22;38449;52.696;6.186;2023-02-03T02:43:56;8.90;99.90
52543;DHT22;38449;52.696;6.186;2023-02-03T02:46:40;8.90;99.90
52543;DHT22;38449;52.696;6.186;2023-02-03T02:49:37;8.90;99.90
52543;DHT22;38449;52.696;6.186;2023-02-03T02:52:06;8.90;99.90
52543;DHT22;38449;52.696;6.186;2023-02-03T02:54:36;8.90;99.90
52543;DHT22;38449;52.696;6.186;2023-02-03T02:57:04;8.90;99.90
52543;DHT22;38449;52.696;6.186;2023-02-03T02:59:30;8.80;99.90
52543;DHT22;38449;52.696;6.186;2023-02-03T03:01:56;8.90;99.90
52543;DHT22;38449;52.696;6.186;2023-02-03T03:04:26;8.90;99.90
52543;DHT22;38449;52.696;6.186;2023-02-03T03:07:00;8.90;99.90
52543;DHT22;38449;52.696;6.186;2023-02-03T03:09:38;8.90;99.90
52543;DHT22;38449;52.696;6.186;2023-02-03T03:12:15;8.80;99.90
52543;DHT22;38449;52.696;6.186;2023-02-03T03:14:45;8.90;99.90
52543;DHT22;38449;52.696;6.186;2023-02-03T03:17:17;8.90;99.90
52543;DHT22;38449;52.696;6.186;2023-02-03T03:19:49;8.90;99.90
52543;DHT22;38449;52.696;6.186;2023-02-03T03:22:19;9.00;99.90
52543;DHT22;38449;52.696;6.186;2023-02-03T03:24:55;9.00;99.90
52543;DHT22;38449;52.696;6.186;2023-02-03T03:27:25;9.10;99.90
52543;DHT22;38449;52.696;6.186;2023-02-03T03:29:56;9.10;99.90
52543;DHT22;38449;52.696;6.186;2023-02-03T03:32:23;9.00;99.90
52543;DHT22;38449;52.696;6.186;2023-02-03T03:34:50;9.10;99.90
52543;DHT22;38449;52.696;6.186;2023-02-03T03:37:18;9.10;99.90
52543;DHT22;38449;52.696;6.186;2023-02-03T03:44:47;9.00;99.90
52543;DHT22;38449;52.696;6.186;2023-02-03T03:47:16;9.00;99.90
52543;DHT22;38449;52.696;6.186;2023-02-03T03:49:46;9.00;99.90
52543;DHT22;38449;52.696;6.186;2023-02-03T03:52:16;9.00;99.90
52543;DHT22;38449;52.696;6.186;2023-02-03T03:54:43;9.00;99.90
52543;DHT22;38449;52.696;6.186;2023-02-03T03:57:36;8.90;99.90
52543;DHT22;38449;52.696;6.186;2023-02-03T04:00:05;8.90;99.90
52543;DHT22;38449;52.696;6.186;2023-02-03T04:02:32;9.00;99.90
52543;DHT22;38449;52.696;6.186;2023-02-03T04:05:00;8.90;99.90
52543;DHT22;38449;52.696;6.186;2023-02-03T04:07:44;9.00;99.90
52543;DHT22;38449;52.696;6.186;2023-02-03T04:10:34;8.90;99.90
52543;DHT22;38449;52.696;6.186;2023-02-03T04:13:00;9.00;99.90
52543;DHT22;38449;52.696;6.186;2023-02-03T04:15:27;8.90;99.90
52543;DHT22;38449;52.696;6.186;2023-02-03T04:17:52;9.00;99.90
52543;DHT22;38449;52.696;6.186;2023-02-03T04:20:20;9.00;99.90
52543;DHT22;38449;52.696;6.186;2023-02-03T04:22:46;9.00;99.90
52543;DHT22;38449;52.696;6.186;2023-02-03T04:25:11;9.00;99.90
52543;DHT22;38449;52.696;6.186;2023-02-03T04:27:37;9.10;99.90
52543;DHT22;38449;52.696;6.186;2023-02-03T04:30:04;9.00;99.90
52543;DHT22;38449;52.696;6.186;2023-02-03T04:32:30;9.00;99.90
52543;DHT22;38449;52.696;6.186;2023-02-03T04:34:56;9.00;99.90
52543;DHT22;38449;52.696;6.186;2023-02-03T04:37:23;9.00;99.90
52543;DHT22;38449;52.696;6.186;2023-02-03T04:39:53;8.90;99.90
52543;DHT22;38449;52.696;6.186;2023-02-03T04:42:19;9.00;99.90
52543;DHT22;38449;52.696;6.186;2023-02-03T04:44:46;9.00;99.90
52543;DHT22;38449;52.696;6.186;2023-02-03T04:47:12;8.90;99.90
52543;DHT22;38449;52.696;6.186;2023-02-03T04:49:38;8.90;99.90
52543;DHT22;38449;52.696;6.186;2023-02-03T04:52:04;8.90;99.90
52543;DHT22;38449;52.696;6.186;2023-02-03T04:54:30;8.90;99.90
52543;DHT22;38449;52.696;6.186;2023-02-03T04:56:55;8.90;99.90
52543;DHT22;38449;52.696;6.186;2023-02-03T04:59:21;8.90;99.90
52543;DHT22;38449;52.696;6.186;2023-02-03T05:01:46;8.80;99.90
52543;DHT22;38449;52.696;6.186;2023-02-03T05:04:12;8.90;99.90
52543;DHT22;38449;52.696;6.186;2023-02-03T05:06:37;8.90;99.90
52543;DHT22;38449;52.696;6.186;2023-02-03T05:09:03;8.90;99.90
52543;DHT22;38449;52.696;6.186;2023-02-03T05:11:29;8.80;99.90
52543;DHT22;38449;52.696;6.186;2023-02-03T05:13:56;8.90;99.90
52543;DHT22;38449;52.696;6.186;2023-02-03T05:16:23;8.90;99.90
52543;DHT22;38449;52.696;6.186;2023-02-03T05:18:49;8.90;99.90
52543;DHT22;38449;52.696;6.186;2023-02-03T05:21:15;8.90;99.90
52543;DHT22;38449;52.696;6.186;2023-02-03T05:23:42;8.90;99.90
52543;DHT22;38449;52.696;6.186;2023-02-03T05:26:07;8.80;99.90
52543;DHT22;38449;52.696;6.186;2023-02-03T05:28:34;8.80;99.90
52543;DHT22;38449;52.696;6.186;2023-02-03T05:31:00;8.90;99.90
52543;DHT22;38449;52.696;6.186;2023-02-03T05:33:27;8.90;99.90
52543;DHT22;38449;52.696;6.186;2023-02-03T05:35:53;8.90;99.90
52543;DHT22;38449;52.696;6.186;2023-02-03T05:38:18;8.90;99.90
52543;DHT22;38449;52.696;6.186;2023-02-03T05:40:50;8.90;99.90
52543;DHT22;38449;52.696;6.186;2023-02-03T05:43:36;8.90;99.90
52543;DHT22;38449;52.696;6.186;2023-02-03T05:46:03;8.90;99.90
52543;DHT22;38449;52.696;6.186;2023-02-03T05:48:29;8.90;99.90
52543;DHT22;38449;52.696;6.186;2023-02-03T05:50:56;8.90;99.90
52543;DHT22;38449;52.696;6.186;2023-02-03T05:53:22;8.80;99.90
52543;DHT22;38449;52.696;6.186;2023-02-03T05:55:48;8.80;99.90
52543;DHT22;38449;52.696;6.186;2023-02-03T05:58:13;8.80;99.90
52543;DHT22;38449;52.696;6.186;2023-02-03T06:00:39;8.80;99.90
52543;DHT22;38449;52.696;6.186;2023-02-03T06:03:05;8.90;99.90
52543;DHT22;38449;52.696;6.186;2023-02-03T06:05:33;8.80;99.90
52543;DHT22;38449;52.696;6.186;2023-02-03T06:07:59;8.90;99.90
52543;DHT22;38449;52.696;6.186;2023-02-03T06:10:25;8.70;99.90
52543;DHT22;38449;52.696;6.186;2023-02-03T06:12:51;8.70;99.90
52543;DHT22;38449;52.696;6.186;2023-02-03T06:15:19;8.70;99.90
52543;DHT22;38449;52.696;6.186;2023-02-03T06:17:46;8.70;99.90
52543;DHT22;38449;52.696;6.186;2023-02-03T06:20:14;8.70;99.90
52543;DHT22;38449;52.696;6.186;2023-02-03T06:22:40;8.70;99.90
52543;DHT22;38449;52.696;6.186;2023-02-03T06:25:07;8.70;99.90
52543;DHT22;38449;52.696;6.186;2023-02-03T06:27:32;8.80;99.90
52543;DHT22;38449;52.696;6.186;2023-02-03T06:29:58;8.70;99.90
52543;DHT22;38449;52.696;6.186;2023-02-03T06:32:23;8.70;99.90
52543;DHT22;38449;52.696;6.186;2023-02-03T06:34:49;8.70;99.90
52543;DHT22;38449;52.696;6.186;2023-02-03T06:37:15;8.70;99.90
52543;DHT22;38449;52.696;6.186;2023-02-03T06:39:40;8.80;99.90
52543;DHT22;38449;52.696;6.186;2023-02-03T06:42:07;8.70;99.90
52543;DHT22;38449;52.696;6.186;2023-02-03T06:44:33;8.70;99.90
52543;DHT22;38449;52.696;6.186;2023-02-03T06:46:58;8.70;99.90
52543;DHT22;38449;52.696;6.186;2023-02-03T06:49:24;8.60;99.90
52543;DHT22;38449;52.696;6.186;2023-02-03T06:51:50;8.70;99.90
52543;DHT22;38449;52.696;6.186;2023-02-03T06:54:16;8.60;99.90
52543;DHT22;38449;52.696;6.186;2023-02-03T06:56:42;8.60;99.90
52543;DHT22;38449;52.696;6.186;2023-02-03T06:59:08;8.70;99.90
52543;DHT22;38449;52.696;6.186;2023-02-03T07:01:34;8.70;99.90
52543;DHT22;38449;52.696;6.186;2023-02-03T07:04:00;8.80;99.90
52543;DHT22;38449;52.696;6.186;2023-02-03T07:06:27;8.80;99.90
52543;DHT22;38449;52.696;6.186;2023-02-03T07:08:55;8.80;99.90
52543;DHT22;38449;52.696;6.186;2023-02-03T07:11:21;8.80;99.90
52543;DHT22;38449;52.696;6.186;2023-02-03T07:13:46;8.90;99.90
52543;DHT22;38449;52.696;6.186;2023-02-03T07:16:12;8.90;99.90
52543;DHT22;38449;52.696;6.186;2023-02-03T07:18:38;9.00;99.90
52543;DHT22;38449;52.696;6.186;2023-02-03T07:21:05;9.00;99.90
52543;DHT22;38449;52.696;6.186;2023-02-03T07:23:31;9.00;99.90
52543;DHT22;38449;52.696;6.186;2023-02-03T07:26:00;9.10;99.90
52543;DHT22;38449;52.696;6.186;2023-02-03T07:28:27;9.20;99.90
52543;DHT22;38449;52.696;6.186;2023-02-03T07:30:53;9.10;99.90
52543;DHT22;38449;52.696;6.186;2023-02-03T07:33:18;9.10;99.90
52543;DHT22;38449;52.696;6.186;2023-02-03T07:35:53;9.20;99.90
52543;DHT22;38449;52.696;6.186;2023-02-03T07:38:19;9.20;99.90
52543;DHT22;38449;52.696;6.186;2023-02-03T07:40:44;9.20;99.90
52543;DHT22;38449;52.696;6.186;2023-02-03T07:43:10;9.20;99.90
52543;DHT22;38449;52.696;6.186;2023-02-03T07:45:36;9.30;99.90
52543;DHT22;38449;52.696;6.186;2023-02-03T07:48:03;9.30;99.90
52543;DHT22;38449;52.696;6.186;2023-02-03T07:50:28;9.30;99.90
52543;DHT22;38449;52.696;6.186;2023-02-03T07:52:54;9.30;99.90
52543;DHT22;38449;52.696;6.186;2023-02-03T07:55:20;9.40;99.90
52543;DHT22;38449;52.696;6.186;2023-02-03T07:57:46;9.30;99.90
52543;DHT22;38449;52.696;6.186;2023-02-03T08:00:13;9.40;99.90
52543;DHT22;38449;52.696;6.186;2023-02-03T08:02:41;9.30;99.90
52543;DHT22;38449;52.696;6.186;2023-02-03T08:05:07;9.30;99.90
52543;DHT22;38449;52.696;6.186;2023-02-03T08:07:33;9.40;99.90
52543;DHT22;38449;52.696;6.186;2023-02-03T08:09:58;9.30;99.90
52543;DHT22;38449;52.696;6.186;2023-02-03T08:12:24;9.30;99.90
52543;DHT22;38449;52.696;6.186;2023-02-03T08:14:49;9.40;99.90
52543;DHT22;38449;52.696;6.186;2023-02-03T08:17:15;9.50;99.90
52543;DHT22;38449;52.696;6.186;2023-02-03T08:19:40;9.30;99.90
52543;DHT22;38449;52.696;6.186;2023-02-03T08:22:06;9.30;99.90
52543;DHT22;38449;52.696;6.186;2023-02-03T08:24:31;9.50;99.90
52543;DHT22;38449;52.696;6.186;2023-02-03T08:26:57;9.50;99.90
52543;DHT22;38449;52.696;6.186;2023-02-03T08:29:23;9.50;99.90
52543;DHT22;38449;52.696;6.186;2023-02-03T08:31:49;9.50;99.90
52543;DHT22;38449;52.696;6.186;2023-02-03T08:34:15;9.60;99.90
52543;DHT22;38449;52.696;6.186;2023-02-03T08:36:40;9.50;99.90
52543;DHT22;38449;52.696;6.186;2023-02-03T08:39:07;9.50;99.90
52543;DHT22;38449;52.696;6.186;2023-02-03T08:41:32;9.60;99.90
52543;DHT22;38449;52.696;6.186;2023-02-03T08:43:59;9.60;99.90
52543;DHT22;38449;52.696;6.186;2023-02-03T08:46:24;9.60;99.90
52543;DHT22;38449;52.696;6.186;2023-02-03T08:48:50;9.60;99.90
52543;DHT22;38449;52.696;6.186;2023-02-03T08:51:17;9.50;99.90
52543;DHT22;38449;52.696;6.186;2023-02-03T08:53:44;9.50;99.90
52543;DHT22;38449;52.696;6.186;2023-02-03T08:56:11;9.70;99.90
52543;DHT22;38449;52.696;6.186;2023-02-03T08:58:36;9.50;99.90
52543;DHT22;38449;52.696;6.186;2023-02-03T09:01:10;9.60;99.90
52543;DHT22;38449;52.696;6.186;2023-02-03T09:03:37;9.60;99.90
52543;DHT22;38449;52.696;6.186;2023-02-03T09:06:03;9.60;99.90
52543;DHT22;38449;52.696;6.186;2023-02-03T09:08:29;9.50;99.90
52543;DHT22;38449;52.696;6.186;2023-02-03T09:10:55;9.60;99.90
52543;DHT22;38449;52.696;6.186;2023-02-03T09:13:20;9.60;99.90
52543;DHT22;38449;52.696;6.186;2023-02-03T09:15:46;9.50;99.90
52543;DHT22;38449;52.696;6.186;2023-02-03T09:18:11;9.50;99.90
52543;DHT22;38449;52.696;6.186;2023-02-03T09:20:37;9.60;99.90
52543;DHT22;38449;52.696;6.186;2023-02-03T09:23:03;9.60;99.90
52543;DHT22;38449;52.696;6.186;2023-02-03T09:25:28;9.60;99.90
52543;DHT22;38449;52.696;6.186;2023-02-03T09:27:54;9.60;99.90
52543;DHT22;38449;52.696;6.186;2023-02-03T09:30:24;9.50;99.90
52543;DHT22;38449;52.696;6.186;2023-02-03T09:32:52;9.50;99.90
52543;DHT22;38449;52.696;6.186;2023-02-03T09:35:19;9.60;99.90
52543;DHT22;38449;52.696;6.186;2023-02-03T09:37:45;9.50;99.90
52543;DHT22;38449;52.696;6.186;2023-02-03T09:40:28;9.50;99.90
52543;DHT22;38449;52.696;6.186;2023-02-03T09:45:50;9.40;99.90
52543;DHT22;38449;52.696;6.186;2023-02-03T09:48:25;9.50;99.90
52543;DHT22;38449;52.696;6.186;2023-02-03T09:50:54;9.50;99.90
52543;DHT22;38449;52.696;6.186;2023-02-03T09:53:36;9.40;99.90
52543;DHT22;38449;52.696;6.186;2023-02-03T09:56:16;9.50;99.90
52543;DHT22;38449;52.696;6.186;2023-02-03T09:58:43;9.50;99.90
52543;DHT22;38449;52.696;6.186;2023-02-03T10:01:11;9.50;99.90
52543;DHT22;38449;52.696;6.186;2023-02-03T10:04:03;9.50;99.90
52543;DHT22;38449;52.696;6.186;2023-02-03T10:06:40;9.50;99.90
52543;DHT22;38449;52.696;6.186;2023-02-03T10:09:29;9.40;99.90
52543;DHT22;38449;52.696;6.186;2023-02-03T10:12:18;9.50;99.90
52543;DHT22;38449;52.696;6.186;2023-02-03T10:17:36;9.50;99.90
52543;DHT22;38449;52.696;6.186;2023-02-03T10:22:39;9.50;99.90
52543;DHT22;38449;52.696;6.186;2023-02-03T10:25:32;9.50;99.90
52543;DHT22;38449;52.696;6.186;2023-02-03T10:28:02;9.40;99.90
52543;DHT22;38449;52.696;6.186;2023-02-03T10:30:53;9.50;99.90
52543;DHT22;38449;52.696;6.186;2023-02-03T10:33:24;9.50;99.90
52543;DHT22;38449;52.696;6.186;2023-02-03T10:38:15;9.50;99.90
52543;DHT22;38449;52.696;6.186;2023-02-03T10:41:05;9.60;99.90
52543;DHT22;38449;52.696;6.186;2023-02-03T10:43:52;9.60;99.90
52543;DHT22;38449;52.696;6.186;2023-02-03T10:46:40;9.60;99.90
52543;DHT22;38449;52.696;6.186;2023-02-03T10:49:28;9.70;99.90
52543;DHT22;38449;52.696;6.186;2023-02-03T10:52:00;9.60;99.90
52543;DHT22;38449;52.696;6.186;2023-02-03T10:54:32;9.60;99.90
52543;DHT22;38449;52.696;6.186;2023-02-03T10:57:10;9.60;99.90
52543;DHT22;38449;52.696;6.186;2023-02-03T10:59:41;9.70;99.90
52543;DHT22;38449;52.696;6.186;2023-02-03T11:02:29;9.70;99.90
52543;DHT22;38449;52.696;6.186;2023-02-03T11:07:35;9.80;99.90
52543;DHT22;38449;52.696;6.186;2023-02-03T11:10:01;9.80;99.90
52543;DHT22;38449;52.696;6.186;2023-02-03T11:12:28;9.80;99.90
52543;DHT22;38449;52.696;6.186;2023-02-03T11:14:54;9.90;99.90
52543;DHT22;38449;52.696;6.186;2023-02-03T11:17:26;9.90;99.90
52543;DHT22;38449;52.696;6.186;2023-02-03T11:19:58;9.90;99.90
52543;DHT22;38449;52.696;6.186;2023-02-03T11:22:34;10.00;99.90
52543;DHT22;38449;52.696;6.186;2023-02-03T11:25:02;9.90;99.90
52543;DHT22;38449;52.696;6.186;2023-02-03T11:27:31;9.90;99.90
52543;DHT22;38449;52.696;6.186;2023-02-03T11:30:14;9.90;99.90
52543;DHT22;38449;52.696;6.186;2023-02-03T11:32:43;9.90;99.90
52543;DHT22;38449;52.696;6.186;2023-02-03T11:35:27;9.90;99.90
52543;DHT22;38449;52.696;6.186;2023-02-03T11:37:56;9.80;99.90
52543;DHT22;38449;52.696;6.186;2023-02-03T11:40:31;9.80;99.90
52543;DHT22;38449;52.696;6.186;2023-02-03T11:43:02;9.80;99.90
52543;DHT22;38449;52.696;6.186;2023-02-03T11:45:38;9.80;99.90
52543;DHT22;38449;52.696;6.186;2023-02-03T12:07:00;9.70;99.90
52543;DHT22;38449;52.696;6.186;2023-02-03T12:09:43;9.70;99.90
52543;DHT22;38449;52.696;6.186;2023-02-03T12:18:11;9.70;99.90
52543;DHT22;38449;52.696;6.186;2023-02-03T12:20:46;9.80;99.90
52543;DHT22;38449;52.696;6.186;2023-02-03T12:23:29;9.70;99.90
52543;DHT22;38449;52.696;6.186;2023-02-03T12:26:19;9.70;99.90
52543;DHT22;38449;52.696;6.186;2023-02-03T12:28:49;9.70;99.90
52543;DHT22;38449;52.696;6.186;2023-02-03T12:31:27;9.60;99.90
52543;DHT22;38449;52.696;6.186;2023-02-03T12:36:34;9.60;99.90
52543;DHT22;38449;52.696;6.186;2023-02-03T12:41:38;9.60;99.90
52543;DHT22;38449;52.696;6.186;2023-02-03T12:44:22;9.60;99.90
52543;DHT22;38449;52.696;6.186;2023-02-03T12:46:59;9.60;99.90
52543;DHT22;38449;52.696;6.186;2023-02-03T12:49:41;9.70;99.90
52543;DHT22;38449;52.696;6.186;2023-02-03T12:52:22;9.70;99.90
52543;DHT22;38449;52.696;6.186;2023-02-03T12:57:40;9.60;99.90
52543;DHT22;38449;52.696;6.186;2023-02-03T13:06:23;9.70;99.90
52543;DHT22;38449;52.696;6.186;2023-02-03T13:11:41;9.60;99.90
52543;DHT22;38449;52.696;6.186;2023-02-03T13:14:38;9.60;99.90
52543;DHT22;38449;52.696;6.186;2023-02-03T13:17:17;9.60;99.90
52543;DHT22;38449;52.696;6.186;2023-02-03T13:19:48;9.60;99.90
52543;DHT22;38449;52.696;6.186;2023-02-03T13:22:15;9.60;99.90
52543;DHT22;38449;52.696;6.186;2023-02-03T13:24:46;9.70;99.90
52543;DHT22;38449;52.696;6.186;2023-02-03T13:27:31;9.60;99.90
52543;DHT22;38449;52.696;6.186;2023-02-03T13:30:08;9.60;99.90
52543;DHT22;38449;52.696;6.186;2023-02-03T13:35:31;9.60;99.90
52543;DHT22;38449;52.696;6.186;2023-02-03T13:43:59;9.60;99.90
52543;DHT22;38449;52.696;6.186;2023-02-03T13:46:29;9.60;99.90
52543;DHT22;38449;52.696;6.186;2023-02-03T13:48:59;9.60;99.90
52543;DHT22;38449;52.696;6.186;2023-02-03T13:51:29;9.60;99.90
52543;DHT22;38449;52.696;6.186;2023-02-03T13:54:03;9.60;99.90
52543;DHT22;38449;52.696;6.186;2023-02-03T13:56:31;9.50;99.90
52543;DHT22;38449;52.696;6.186;2023-02-03T14:01:41;9.50;99.90
52543;DHT22;38449;52.696;6.186;2023-02-03T14:07:01;9.40;99.90
52543;DHT22;38449;52.696;6.186;2023-02-03T14:14:43;9.30;99.90
52543;DHT22;38449;52.696;6.186;2023-02-03T14:20:03;9.20;99.90
52543;DHT22;38449;52.696;6.186;2023-02-03T14:22:34;9.20;99.90
52543;DHT22;38449;52.696;6.186;2023-02-03T14:25:05;9.20;99.90
52543;DHT22;38449;52.696;6.186;2023-02-03T14:27:32;9.10;99.90
52543;DHT22;38449;52.696;6.186;2023-02-03T14:30:16;9.20;99.90
52543;DHT22;38449;52.696;6.186;2023-02-03T14:32:51;9.20;99.90
52543;DHT22;38449;52.696;6.186;2023-02-03T14:35:39;9.20;99.90
52543;DHT22;38449;52.696;6.186;2023-02-03T14:38:12;9.10;99.90
52543;DHT22;38449;52.696;6.186;2023-02-03T14:41:01;9.10;99.90
52543;DHT22;38449;52.696;6.186;2023-02-03T14:43:37;9.10;99.90
52543;DHT22;38449;52.696;6.186;2023-02-03T14:48:50;9.10;99.90
52543;DHT22;38449;52.696;6.186;2023-02-03T14:54:13;9.20;99.90
52543;DHT22;38449;52.696;6.186;2023-02-03T14:59:48;9.20;99.90
52543;DHT22;38449;52.696;6.186;2023-02-03T15:02:19;9.20;99.90
52543;DHT22;38449;52.696;6.186;2023-02-03T15:04:47;9.20;99.90
52543;DHT22;38449;52.696;6.186;2023-02-03T15:07:39;9.10;99.90
52543;DHT22;38449;52.696;6.186;2023-02-03T15:10:19;9.10;99.90
52543;DHT22;38449;52.696;6.186;2023-02-03T15:17:45;9.10;99.90
52543;DHT22;38449;52.696;6.186;2023-02-03T15:20:33;9.10;99.90
52543;DHT22;38449;52.696;6.186;2023-02-03T15:23:01;9.00;99.90
52543;DHT22;38449;52.696;6.186;2023-02-03T15:25:29;9.00;99.90
52543;DHT22;38449;52.696;6.186;2023-02-03T15:28:17;8.90;99.90
52543;DHT22;38449;52.696;6.186;2023-02-03T15:30:45;8.90;99.90
52543;DHT22;38449;52.696;6.186;2023-02-03T15:33:16;8.80;99.90
52543;DHT22;38449;52.696;6.186;2023-02-03T15:35:48;8.80;99.90
52543;DHT22;38449;52.696;6.186;2023-02-03T15:38:26;8.80;99.90
52543;DHT22;38449;52.696;6.186;2023-02-03T15:40:55;8.80;99.90
52543;DHT22;38449;52.696;6.186;2023-02-03T15:43:41;8.80;99.90
52543;DHT22;38449;52.696;6.186;2023-02-03T15:46:20;8.80;99.90
52543;DHT22;38449;52.696;6.186;2023-02-03T15:49:13;8.80;99.90
52543;DHT22;38449;52.696;6.186;2023-02-03T15:54:43;8.70;99.90
52543;DHT22;38449;52.696;6.186;2023-02-03T15:57:20;8.70;99.90
52543;DHT22;38449;52.696;6.186;2023-02-03T15:59:59;8.60;99.90
52543;DHT22;38449;52.696;6.186;2023-02-03T16:02:30;8.60;99.90
52543;DHT22;38449;52.696;6.186;2023-02-03T16:05:12;8.60;99.90
52543;DHT22;38449;52.696;6.186;2023-02-03T16:07:44;8.60;99.90
52543;DHT22;38449;52.696;6.186;2023-02-03T16:10:30;8.50;99.90
52543;DHT22;38449;52.696;6.186;2023-02-03T16:16:00;8.50;99.90
52543;DHT22;38449;52.696;6.186;2023-02-03T16:18:28;8.50;99.90
52543;DHT22;38449;52.696;6.186;2023-02-03T16:20:54;8.50;99.90
52543;DHT22;38449;52.696;6.186;2023-02-03T16:23:23;8.50;99.90
52543;DHT22;38449;52.696;6.186;2023-02-03T16:28:39;8.40;99.90
52543;DHT22;38449;52.696;6.186;2023-02-03T16:31:24;8.30;99.90
52543;DHT22;38449;52.696;6.186;2023-02-03T16:34:15;8.20;99.90
52543;DHT22;38449;52.696;6.186;2023-02-03T16:37:00;8.20;99.90
52543;DHT22;38449;52.696;6.186;2023-02-03T16:39:45;8.20;99.90
52543;DHT22;38449;52.696;6.186;2023-02-03T16:42:38;8.10;99.90
52543;DHT22;38449;52.696;6.186;2023-02-03T16:45:23;8.10;99.90
52543;DHT22;38449;52.696;6.186;2023-02-03T16:48:10;8.10;99.90
52543;DHT22;38449;52.696;6.186;2023-02-03T16:50:56;8.20;99.90
52543;DHT22;38449;52.696;6.186;2023-02-03T16:53:25;8.40;99.90
52543;DHT22;38449;52.696;6.186;2023-02-03T16:55:53;8.50;99.90
52543;DHT22;38449;52.696;6.186;2023-02-03T16:58:20;8.60;99.90
52543;DHT22;38449;52.696;6.186;2023-02-03T17:00:48;8.70;99.90
52543;DHT22;38449;52.696;6.186;2023-02-03T17:03:29;8.80;99.90
52543;DHT22;38449;52.696;6.186;2023-02-03T17:06:02;8.70;99.90
52543;DHT22;38449;52.696;6.186;2023-02-03T17:08:29;8.70;99.90
52543;DHT22;38449;52.696;6.186;2023-02-03T17:11:01;8.70;99.90
52543;DHT22;38449;52.696;6.186;2023-02-03T17:13:28;8.70;99.90
52543;DHT22;38449;52.696;6.186;2023-02-03T17:15:54;8.80;99.90
52543;DHT22;38449;52.696;6.186;2023-02-03T17:18:21;8.70;99.90
52543;DHT22;38449;52.696;6.186;2023-02-03T17:20:47;8.70;99.90
52543;DHT22;38449;52.696;6.186;2023-02-03T17:23:14;8.80;99.90
52543;DHT22;38449;52.696;6.186;2023-02-03T17:25:47;8.70;99.90
52543;DHT22;38449;52.696;6.186;2023-02-03T17:28:14;8.80;99.90
52543;DHT22;38449;52.696;6.186;2023-02-03T17:30:41;8.80;99.90
52543;DHT22;38449;52.696;6.186;2023-02-03T17:33:07;8.80;99.90
52543;DHT22;38449;52.696;6.186;2023-02-03T17:35:38;8.80;99.90
52543;DHT22;38449;52.696;6.186;2023-02-03T17:38:05;8.80;99.90
52543;DHT22;38449;52.696;6.186;2023-02-03T17:40:31;8.90;99.90
52543;DHT22;38449;52.696;6.186;2023-02-03T17:42:57;8.80;99.90
52543;DHT22;38449;52.696;6.186;2023-02-03T17:45:23;8.70;99.90
52543;DHT22;38449;52.696;6.186;2023-02-03T17:47:51;8.70;99.90
52543;DHT22;38449;52.696;6.186;2023-02-03T17:50:17;8.60;99.90
52543;DHT22;38449;52.696;6.186;2023-02-03T17:52:43;8.50;99.90
52543;DHT22;38449;52.696;6.186;2023-02-03T17:55:10;8.50;99.90
52543;DHT22;38449;52.696;6.186;2023-02-03T17:57:37;8.30;99.90
52543;DHT22;38449;52.696;6.186;2023-02-03T18:00:04;8.50;99.90
52543;DHT22;38449;52.696;6.186;2023-02-03T18:02:30;8.30;99.90
52543;DHT22;38449;52.696;6.186;2023-02-03T18:04:57;8.40;99.90